Time;durP1;ratioP1;P1;durP2;ratioP2;P2;SDS_P1;SDS_P2;PMS_P1;PMS_P2;Temp;Humidity;BMP_temperature;BMP_pressure;BME280_temperature;BME280_humidity;BME280_pressure;Samples;Min_cycle;Max_cycle;Signal;HPM_P1;HPM_P2
2022/01/10 00:00:07;;;;;;;7.90;7.10;;;-0.40;99.90;;;;;;5077549;28;20475;-49
2022/01/10 00:02:34;;;;;;;8.70;7.83;;;-0.50;99.90;;;;;;5079883;28;21012;-49
2022/01/10 00:05:01;;;;;;;7.00;6.40;;;-0.40;99.90;;;;;;5070667;28;20515;-52
2022/01/10 00:07:28;;;;;;;9.53;8.53;;;-0.30;99.90;;;;;;5111112;22;20529;-56
2022/01/10 00:09:56;;;;;;;11.57;9.33;;;-0.20;99.90;;;;;;5084018;28;20522;-58
2022/01/10 00:12:23;;;;;;;11.03;9.70;;;-0.10;99.90;;;;;;5089760;28;20869;-55
2022/01/10 00:14:50;;;;;;;11.40;7.93;;;-0.10;99.90;;;;;;5088413;28;20464;-56
2022/01/10 00:17:17;;;;;;;10.80;9.00;;;0.00;99.90;;;;;;5084914;28;20567;-56
2022/01/10 00:19:44;;;;;;;10.00;9.13;;;0.00;99.90;;;;;;5084792;28;20481;-56
2022/01/10 00:22:11;;;;;;;11.53;10.43;;;0.00;99.90;;;;;;5079166;28;20484;-56
2022/01/10 00:24:39;;;;;;;13.73;12.17;;;0.00;99.90;;;;;;5084450;28;21074;-56
2022/01/10 00:27:07;;;;;;;16.73;9.77;;;0.00;99.90;;;;;;5087043;28;20505;-56
2022/01/10 00:29:34;;;;;;;12.80;8.70;;;0.00;99.90;;;;;;5080538;28;20504;-56
2022/01/10 00:32:01;;;;;;;9.17;8.20;;;-0.30;99.90;;;;;;5082178;28;20489;-57
2022/01/10 00:34:29;;;;;;;7.73;6.93;;;-0.60;99.90;;;;;;5082062;28;20448;-56
2022/01/10 00:36:56;;;;;;;8.43;7.50;;;-1.00;99.90;;;;;;5086935;28;20534;-56
2022/01/10 00:39:23;;;;;;;9.03;7.87;;;-1.10;99.90;;;;;;5082119;28;20473;-57
2022/01/10 00:41:50;;;;;;;12.37;9.63;;;-1.10;99.90;;;;;;5078994;28;20478;-57
2022/01/10 00:44:25;;;;;;;10.30;9.30;;;-0.90;99.90;;;;;;5081674;28;20512;-56
2022/01/10 00:46:52;;;;;;;10.07;9.07;;;-0.70;99.90;;;;;;5087665;28;20518;-55
2022/01/10 00:49:19;;;;;;;7.20;6.50;;;-0.60;99.90;;;;;;5086968;28;20479;-56
2022/01/10 00:51:46;;;;;;;8.83;7.77;;;-0.50;99.90;;;;;;5084988;28;20500;-56
2022/01/10 00:54:13;;;;;;;7.20;6.60;;;-0.70;99.90;;;;;;5079005;28;20459;-56
2022/01/10 00:56:40;;;;;;;7.53;6.07;;;-1.10;99.90;;;;;;5076627;28;20497;-57
2022/01/10 00:59:07;;;;;;;5.80;5.30;;;-1.20;99.90;;;;;;5079959;28;20572;-56
2022/01/10 01:01:35;;;;;;;7.53;6.83;;;-1.30;99.90;;;;;;5088431;28;20442;-57
2022/01/10 01:04:03;;;;;;;8.77;6.70;;;-1.10;99.90;;;;;;5081666;28;20571;-56
2022/01/10 01:06:30;;;;;;;12.20;7.90;;;-1.00;99.90;;;;;;5081996;28;20480;-56
2022/01/10 01:09:01;;;;;;;8.00;7.27;;;-1.00;99.90;;;;;;5087025;28;20480;-58
2022/01/10 01:14:21;;;;;;;9.97;8.73;;;-1.00;99.90;;;;;;5083839;28;20520;-56
2022/01/10 01:16:58;;;;;;;8.10;7.43;;;-0.90;99.90;;;;;;5085741;28;20936;-57
2022/01/10 01:24:53;;;;;;;8.20;6.00;;;-0.90;99.90;;;;;;5083015;28;20473;-56
2022/01/10 01:27:19;;;;;;;6.57;6.07;;;-0.80;99.90;;;;;;5083902;28;20498;-57
2022/01/10 01:29:46;;;;;;;6.60;6.00;;;-0.80;99.90;;;;;;5087087;28;20963;-56
2022/01/10 01:32:15;;;;;;;8.80;5.93;;;-0.90;99.90;;;;;;5082717;28;20966;-56
2022/01/10 01:34:42;;;;;;;6.10;5.50;;;-0.80;99.90;;;;;;5086879;28;20484;-57
2022/01/10 01:37:11;;;;;;;4.80;4.40;;;-0.70;99.90;;;;;;5083186;28;21041;-56
2022/01/10 01:39:38;;;;;;;4.67;3.63;;;-0.70;99.90;;;;;;5076509;28;20453;-56
2022/01/10 01:42:18;;;;;;;3.70;3.40;;;-0.70;99.90;;;;;;5081267;28;20440;-56
2022/01/10 01:44:48;;;;;;;6.37;4.07;;;-0.60;99.90;;;;;;5085106;28;20470;-56
2022/01/10 01:47:16;;;;;;;4.90;4.50;;;-0.60;99.90;;;;;;5086802;28;20956;-56
2022/01/10 01:49:43;;;;;;;5.20;4.70;;;-0.60;99.90;;;;;;5088140;28;20454;-58
2022/01/10 01:52:10;;;;;;;5.60;5.10;;;-0.50;99.90;;;;;;5087123;28;20475;-56
2022/01/10 01:54:37;;;;;;;5.30;4.80;;;-0.60;99.90;;;;;;5082092;28;20692;-56
2022/01/10 01:57:05;;;;;;;6.10;5.57;;;-0.50;99.90;;;;;;5078511;28;20470;-56
2022/01/10 01:59:32;;;;;;;6.87;6.27;;;-0.70;99.90;;;;;;5077972;28;20485;-57
2022/01/10 02:01:58;;;;;;;7.20;6.50;;;-0.80;99.90;;;;;;5082250;28;20475;-56
2022/01/10 02:04:27;;;;;;;7.70;7.00;;;-1.20;99.90;;;;;;5079412;28;20741;-56
2022/01/10 02:06:54;;;;;;;8.60;7.10;;;-1.30;99.90;;;;;;5087200;28;20503;-57
2022/01/10 02:09:21;;;;;;;8.40;7.57;;;-1.30;99.90;;;;;;5085724;28;20486;-57
2022/01/10 02:11:48;;;;;;;8.30;7.60;;;-1.30;99.90;;;;;;5083645;28;20499;-56
2022/01/10 02:14:16;;;;;;;8.67;7.97;;;-1.20;99.90;;;;;;5079264;28;20448;-56
2022/01/10 02:16:45;;;;;;;8.63;7.23;;;-1.10;99.90;;;;;;5077568;28;20543;-57
2022/01/10 02:19:12;;;;;;;10.33;9.30;;;-1.00;99.90;;;;;;5084568;28;20458;-56
2022/01/10 02:21:40;;;;;;;6.23;5.60;;;-0.90;99.90;;;;;;5084997;28;20477;-57
2022/01/10 02:24:07;;;;;;;6.70;5.97;;;-0.80;99.90;;;;;;5087597;28;20530;-56
2022/01/10 02:26:37;;;;;;;9.23;8.30;;;-0.70;99.90;;;;;;5084364;28;20569;-56
2022/01/10 02:29:05;;;;;;;10.53;9.10;;;-0.70;99.90;;;;;;5086827;28;20453;-57
2022/01/10 02:31:35;;;;;;;9.27;8.37;;;-0.60;99.90;;;;;;5074230;28;20467;-57
2022/01/10 02:34:02;;;;;;;10.73;9.67;;;-0.60;99.90;;;;;;5083697;28;20477;-57
2022/01/10 02:36:29;;;;;;;12.93;10.13;;;-0.60;99.90;;;;;;5087056;28;20465;-56
2022/01/10 02:39:00;;;;;;;11.90;8.60;;;-0.60;99.90;;;;;;5089528;28;20481;-57
2022/01/10 02:41:30;;;;;;;13.00;8.97;;;-0.60;99.90;;;;;;5085737;28;20447;-56
2022/01/10 02:43:59;;;;;;;8.63;7.17;;;-0.60;99.90;;;;;;5086214;28;20552;-56
2022/01/10 02:46:26;;;;;;;6.50;5.80;;;-0.60;99.90;;;;;;5089449;28;20556;-57
2022/01/10 02:48:54;;;;;;;6.33;5.57;;;-0.50;99.90;;;;;;5091028;28;20438;-55
2022/01/10 02:51:21;;;;;;;9.10;7.80;;;-0.50;99.90;;;;;;5081486;28;20489;-56
2022/01/10 02:53:48;;;;;;;11.47;9.97;;;-0.50;99.90;;;;;;5085756;28;20487;-55
2022/01/10 02:56:16;;;;;;;9.70;8.57;;;-0.50;99.90;;;;;;5087739;28;20501;-57
2022/01/10 02:58:43;;;;;;;10.20;8.43;;;-0.40;99.90;;;;;;5090693;28;20485;-55
2022/01/10 03:01:10;;;;;;;8.23;7.47;;;-0.60;99.90;;;;;;5088893;28;20515;-56
2022/01/10 03:03:37;;;;;;;9.60;7.33;;;-0.80;99.90;;;;;;5090185;28;20449;-57
2022/01/10 03:06:04;;;;;;;7.90;7.20;;;-0.80;99.90;;;;;;5083925;28;20964;-56
2022/01/10 03:08:33;;;;;;;8.40;7.50;;;-0.90;99.90;;;;;;5086349;28;20494;-54
2022/01/10 03:11:00;;;;;;;9.97;8.60;;;-1.00;99.90;;;;;;5086019;28;20521;-57
2022/01/10 03:13:28;;;;;;;9.67;8.67;;;-1.00;99.90;;;;;;5079397;28;20436;-56
2022/01/10 03:15:55;;;;;;;7.50;6.80;;;-1.00;99.90;;;;;;5079250;28;20493;-55
2022/01/10 03:18:22;;;;;;;8.43;7.33;;;-1.00;99.90;;;;;;5084264;28;20482;-57
2022/01/10 03:20:49;;;;;;;9.10;8.00;;;-1.00;99.90;;;;;;5085660;28;20717;-56
2022/01/10 03:23:17;;;;;;;9.60;8.67;;;-0.90;99.90;;;;;;5088948;28;20472;-56
2022/01/10 03:25:43;;;;;;;9.20;8.30;;;-0.80;99.90;;;;;;5084407;28;20533;-56
2022/01/10 03:28:13;;;;;;;12.17;8.67;;;-0.70;99.90;;;;;;5076294;28;20505;-56
2022/01/10 03:30:42;;;;;;;11.47;10.37;;;-0.60;99.90;;;;;;5089268;28;20481;-56
2022/01/10 03:33:09;;;;;;;9.17;8.27;;;-0.50;99.90;;;;;;5087329;28;20477;-57
2022/01/10 03:35:37;;;;;;;11.80;10.37;;;-0.50;99.90;;;;;;5085412;28;20448;-56
2022/01/10 03:38:04;;;;;;;9.13;8.27;;;-0.40;99.90;;;;;;5079868;28;20466;-57
2022/01/10 03:40:31;;;;;;;10.90;9.20;;;-0.40;99.90;;;;;;5087746;28;20873;-56
2022/01/10 03:42:58;;;;;;;11.73;8.70;;;-0.30;99.90;;;;;;5087915;28;20476;-57
2022/01/10 03:45:25;;;;;;;11.63;10.53;;;-0.30;99.90;;;;;;5079092;28;20518;-56
2022/01/10 03:47:53;;;;;;;11.60;9.80;;;-0.30;99.90;;;;;;5088984;28;20494;-57
2022/01/10 03:50:20;;;;;;;12.00;10.13;;;-0.30;99.90;;;;;;5087372;28;20509;-57
2022/01/10 03:52:47;;;;;;;9.80;8.90;;;-0.30;99.90;;;;;;5087852;28;20452;-56
2022/01/10 03:55:14;;;;;;;11.70;9.50;;;-0.20;99.90;;;;;;5089247;28;20875;-56
2022/01/10 03:57:41;;;;;;;10.53;9.47;;;-0.20;99.90;;;;;;5084649;28;20516;-57
2022/01/10 04:00:10;;;;;;;12.63;11.00;;;-0.20;99.90;;;;;;5079030;28;20945;-56
2022/01/10 04:02:38;;;;;;;10.77;8.87;;;-0.20;99.90;;;;;;5081196;28;20537;-56
2022/01/10 04:05:07;;;;;;;12.00;9.57;;;-0.20;99.90;;;;;;5088137;28;20479;-57
2022/01/10 04:07:35;;;;;;;10.43;9.33;;;-0.20;99.90;;;;;;5086831;28;20554;-56
2022/01/10 04:10:03;;;;;;;11.57;9.10;;;-0.30;99.90;;;;;;5088952;28;20576;-56
2022/01/10 04:12:30;;;;;;;11.00;9.27;;;-0.20;99.90;;;;;;5073999;28;20507;-57
2022/01/10 04:14:57;;;;;;;15.03;11.00;;;-0.20;99.90;;;;;;5085157;28;20879;-56
2022/01/10 04:17:24;;;;;;;10.17;9.20;;;-0.20;99.90;;;;;;5086582;28;20503;-56
2022/01/10 04:19:51;;;;;;;9.50;8.47;;;-0.20;99.90;;;;;;5087822;28;20441;-56
2022/01/10 04:22:20;;;;;;;11.53;9.90;;;-0.20;99.90;;;;;;5087709;28;20517;-56
2022/01/10 04:24:47;;;;;;;10.23;9.53;;;-0.20;99.90;;;;;;5086135;28;20525;-54
2022/01/10 04:27:14;;;;;;;10.23;9.20;;;-0.10;99.90;;;;;;5072771;28;20463;-56
2022/01/10 04:29:41;;;;;;;9.77;8.40;;;-0.10;99.90;;;;;;5085487;28;20550;-57
2022/01/10 04:32:11;;;;;;;15.43;11.77;;;-0.10;99.90;;;;;;5080553;28;20455;-57
2022/01/10 04:34:38;;;;;;;10.80;9.70;;;-0.10;99.90;;;;;;5089735;28;20557;-56
2022/01/10 04:37:06;;;;;;;14.60;10.20;;;-0.20;99.90;;;;;;5087752;28;20492;-57
2022/01/10 04:39:34;;;;;;;12.93;10.27;;;-0.60;99.90;;;;;;5085628;28;20456;-56
2022/01/10 04:42:01;;;;;;;12.57;11.30;;;-0.90;99.90;;;;;;5078582;28;20477;-57
2022/01/10 04:44:28;;;;;;;13.93;10.77;;;-1.10;99.90;;;;;;5087567;28;20472;-56
2022/01/10 04:46:55;;;;;;;21.07;18.20;;;-1.20;99.90;;;;;;5084385;28;20546;-56
2022/01/10 04:49:24;;;;;;;14.37;11.80;;;-1.20;99.90;;;;;;5086973;28;20484;-56
2022/01/10 04:51:51;;;;;;;13.30;12.00;;;-1.20;99.90;;;;;;5079870;28;20450;-56
2022/01/10 04:54:19;;;;;;;16.80;12.10;;;-1.10;99.90;;;;;;5078837;28;20526;-57
2022/01/10 04:56:47;;;;;;;14.13;12.00;;;-1.00;99.90;;;;;;5082656;28;21294;-57
2022/01/10 04:59:14;;;;;;;13.97;12.47;;;-0.90;99.90;;;;;;5081693;28;20477;-56
2022/01/10 05:01:41;;;;;;;13.17;11.67;;;-0.70;99.90;;;;;;5077059;28;20523;-57
2022/01/10 05:04:10;;;;;;;13.73;10.33;;;-0.60;99.90;;;;;;5080521;28;20898;-57
2022/01/10 05:06:36;;;;;;;12.27;11.00;;;-0.50;99.90;;;;;;5081318;28;20595;-56
2022/01/10 05:09:04;;;;;;;11.93;9.80;;;-0.50;99.90;;;;;;5081718;28;20857;-57
2022/01/10 05:11:32;;;;;;;11.10;9.77;;;-0.40;99.90;;;;;;5079362;28;20949;-56
2022/01/10 05:14:01;;;;;;;11.43;9.93;;;-0.30;99.90;;;;;;5081992;28;20456;-57
2022/01/10 05:16:28;;;;;;;10.10;9.10;;;-0.20;99.90;;;;;;5077070;28;20752;-57
2022/01/10 05:18:54;;;;;;;11.33;10.23;;;-0.20;99.90;;;;;;5080928;28;20448;-57
2022/01/10 05:21:21;;;;;;;11.17;9.27;;;-0.10;99.90;;;;;;5079443;28;20859;-57
2022/01/10 05:23:48;;;;;;;11.57;9.83;;;-0.10;99.90;;;;;;5077548;28;20477;-57
2022/01/10 05:26:15;;;;;;;11.60;10.30;;;-0.10;99.90;;;;;;5081229;28;20505;-56
2022/01/10 05:28:42;;;;;;;11.23;10.07;;;-0.10;99.90;;;;;;5083834;28;20474;-56
2022/01/10 05:31:11;;;;;;;11.73;10.40;;;0.00;99.90;;;;;;5081142;28;20453;-55
2022/01/10 05:33:38;;;;;;;11.60;10.03;;;0.00;99.90;;;;;;5078390;28;20492;-56
2022/01/10 05:36:05;;;;;;;10.70;9.50;;;0.00;99.90;;;;;;5082631;28;20518;-56
2022/01/10 05:38:33;;;;;;;10.77;9.60;;;0.00;99.90;;;;;;5079433;28;20954;-56
2022/01/10 05:41:00;;;;;;;11.40;9.53;;;0.10;99.90;;;;;;5078987;28;20465;-57
2022/01/10 05:43:27;;;;;;;12.23;10.53;;;0.10;99.90;;;;;;5082437;28;20475;-56
2022/01/10 05:45:54;;;;;;;9.97;8.97;;;0.10;99.90;;;;;;5079340;28;20503;-56
2022/01/10 05:48:26;;;;;;;9.87;8.97;;;0.10;99.90;;;;;;5078894;28;20477;-56
2022/01/10 05:50:53;;;;;;;12.50;10.60;;;0.10;99.90;;;;;;5077668;28;21195;-57
2022/01/10 05:53:20;;;;;;;10.30;9.40;;;0.10;99.90;;;;;;5080230;28;20469;-57
2022/01/10 05:55:48;;;;;;;10.63;9.20;;;0.00;99.90;;;;;;5081115;28;20469;-56
2022/01/10 05:58:16;;;;;;;10.80;9.80;;;0.10;99.90;;;;;;5076878;28;20441;-56
2022/01/10 06:00:43;;;;;;;10.00;9.20;;;-0.10;99.90;;;;;;5078951;28;20466;-56
2022/01/10 06:03:10;;;;;;;10.77;9.77;;;-0.10;99.90;;;;;;5078319;28;20480;-57
2022/01/10 06:05:39;;;;;;;10.20;8.70;;;0.00;99.90;;;;;;5076061;28;20495;-56
2022/01/10 06:08:08;;;;;;;10.97;9.97;;;0.10;99.90;;;;;;5095091;22;20518;-85
2022/01/10 06:10:36;;;;;;;14.63;11.70;;;0.10;99.90;;;;;;5088652;28;20449;-85
2022/01/10 06:13:03;;;;;;;14.27;11.83;;;0.20;99.90;;;;;;5073913;28;20594;-85
2022/01/10 06:15:30;;;;;;;17.17;12.10;;;0.20;99.90;;;;;;5072165;28;20453;-85
2022/01/10 06:17:57;;;;;;;13.60;11.23;;;0.10;99.90;;;;;;5061588;28;20651;-85
2022/01/10 06:20:24;;;;;;;11.87;10.70;;;-0.10;99.90;;;;;;5061313;28;20460;-85
2022/01/10 06:22:53;;;;;;;11.70;10.60;;;0.00;99.90;;;;;;5065678;28;20492;-85
2022/01/10 06:25:23;;;;;;;10.43;9.50;;;0.00;99.90;;;;;;5068677;28;20479;-85
2022/01/10 06:27:51;;;;;;;12.13;10.93;;;0.10;99.90;;;;;;5067873;28;20508;-85
2022/01/10 06:30:18;;;;;;;10.97;9.87;;;0.10;99.90;;;;;;5070512;28;20437;-85
2022/01/10 06:32:45;;;;;;;11.87;10.67;;;0.20;99.90;;;;;;5079401;28;20448;-86
2022/01/10 06:35:12;;;;;;;12.00;10.77;;;0.20;99.90;;;;;;5064896;28;20512;-86
2022/01/10 06:37:39;;;;;;;11.27;10.07;;;0.20;99.90;;;;;;5062895;28;20874;-85
2022/01/10 06:40:09;;;;;;;11.43;10.20;;;0.20;99.90;;;;;;5074187;28;20463;-83
2022/01/10 06:42:36;;;;;;;13.10;10.47;;;0.30;99.90;;;;;;5073762;28;20466;-85
2022/01/10 06:45:03;;;;;;;12.50;11.30;;;0.30;99.90;;;;;;5070186;28;20478;-85
2022/01/10 06:47:30;;;;;;;15.10;11.07;;;0.30;99.90;;;;;;5070613;28;20451;-84
2022/01/10 06:49:57;;;;;;;11.40;10.47;;;0.30;99.90;;;;;;5073535;28;20987;-85
2022/01/10 06:52:24;;;;;;;12.70;11.37;;;0.30;99.90;;;;;;5073346;28;20514;-85
2022/01/10 06:54:51;;;;;;;11.93;10.37;;;0.20;99.90;;;;;;5070326;28;20446;-84
2022/01/10 06:57:19;;;;;;;11.27;9.97;;;0.10;99.90;;;;;;5075023;28;20484;-85
2022/01/10 06:59:46;;;;;;;12.43;10.63;;;0.10;99.90;;;;;;5070448;28;20556;-85
2022/01/10 07:02:13;;;;;;;12.40;11.10;;;0.20;99.90;;;;;;5069930;28;20468;-85
2022/01/10 07:04:41;;;;;;;14.73;12.97;;;0.10;99.90;;;;;;5072358;28;20473;-85
2022/01/10 07:07:08;;;;;;;12.17;10.93;;;0.10;99.90;;;;;;5065836;28;20556;-85
2022/01/10 07:09:35;;;;;;;16.80;14.10;;;0.20;99.90;;;;;;5067048;28;20441;-85
2022/01/10 07:12:02;;;;;;;16.40;14.60;;;0.20;99.90;;;;;;5072653;28;21027;-85
2022/01/10 07:14:33;;;;;;;15.70;14.20;;;0.10;99.90;;;;;;5068147;28;20491;-85
2022/01/10 07:17:00;;;;;;;16.37;14.60;;;0.10;99.90;;;;;;5066776;28;20816;-86
2022/01/10 07:19:27;;;;;;;15.17;12.83;;;-0.10;99.90;;;;;;5070243;28;20476;-85
2022/01/10 07:21:55;;;;;;;12.63;11.33;;;-0.30;99.90;;;;;;5073753;28;20642;-85
2022/01/10 07:24:22;;;;;;;18.00;15.20;;;-0.40;99.90;;;;;;5071597;28;20442;-85
2022/01/10 07:26:49;;;;;;;18.87;16.90;;;-0.30;99.90;;;;;;5069980;28;21020;-85
2022/01/10 07:29:16;;;;;;;22.60;18.80;;;-0.20;99.90;;;;;;5076353;28;20436;-85
2022/01/10 07:31:44;;;;;;;23.17;19.37;;;-0.10;99.90;;;;;;5069509;28;20445;-85
2022/01/10 07:34:14;;;;;;;16.80;14.83;;;0.00;99.90;;;;;;5071110;28;20838;-85
2022/01/10 07:36:41;;;;;;;16.20;14.10;;;0.10;99.90;;;;;;5071428;28;20526;-85
2022/01/10 07:39:10;;;;;;;16.83;15.03;;;0.10;99.90;;;;;;5070646;28;20447;-85
2022/01/10 07:41:37;;;;;;;16.53;14.83;;;0.20;99.90;;;;;;5063946;28;20873;-85
2022/01/10 07:44:05;;;;;;;18.17;15.93;;;0.20;99.90;;;;;;5076658;28;20507;-85
2022/01/10 07:46:32;;;;;;;18.87;15.57;;;0.30;99.90;;;;;;5075590;28;20528;-85
2022/01/10 07:49:00;;;;;;;14.80;13.27;;;0.30;99.90;;;;;;5073981;28;20478;-85
2022/01/10 07:51:27;;;;;;;16.00;14.40;;;0.30;99.90;;;;;;5073560;28;20844;-85
2022/01/10 07:53:54;;;;;;;16.60;14.80;;;0.40;99.90;;;;;;5057534;28;20482;-85
2022/01/10 07:56:22;;;;;;;15.83;14.23;;;0.40;99.90;;;;;;5071507;28;20439;-85
2022/01/10 07:58:51;;;;;;;17.00;15.30;;;0.50;99.90;;;;;;5071415;28;20445;-85
2022/01/10 08:01:19;;;;;;;14.67;13.20;;;0.40;99.90;;;;;;5071643;28;20552;-85
2022/01/10 08:03:46;;;;;;;16.20;14.00;;;0.40;99.90;;;;;;5073454;28;20992;-85
2022/01/10 08:06:14;;;;;;;15.27;13.77;;;0.40;99.90;;;;;;5065193;28;20551;-85
2022/01/10 08:08:41;;;;;;;15.20;12.40;;;0.40;99.90;;;;;;5071342;28;21019;-85
2022/01/10 08:11:08;;;;;;;16.20;14.20;;;0.10;99.90;;;;;;5069931;28;20462;-85
2022/01/10 08:13:35;;;;;;;15.87;13.70;;;0.00;99.90;;;;;;5070059;28;20445;-85
2022/01/10 08:16:02;;;;;;;16.63;12.93;;;-0.10;99.90;;;;;;5067106;28;20486;-84
2022/01/10 08:18:31;;;;;;;16.93;15.23;;;0.00;99.90;;;;;;5073100;28;20505;-85
2022/01/10 08:20:59;;;;;;;17.17;14.33;;;0.00;99.90;;;;;;5074692;28;20500;-85
2022/01/10 08:23:27;;;;;;;16.50;13.63;;;-0.10;99.90;;;;;;5071001;28;20439;-85
2022/01/10 08:25:54;;;;;;;15.40;12.77;;;-0.10;99.90;;;;;;5064105;28;20476;-85
2022/01/10 08:28:22;;;;;;;17.33;15.50;;;0.10;99.90;;;;;;5072088;28;20989;-85
2022/01/10 08:30:49;;;;;;;19.07;15.50;;;0.20;99.90;;;;;;5064295;28;20869;-85
2022/01/10 08:33:16;;;;;;;17.87;15.30;;;0.30;99.90;;;;;;5074420;28;20451;-85
2022/01/10 08:35:43;;;;;;;18.27;14.87;;;0.40;99.90;;;;;;5079217;28;20491;-85
2022/01/10 08:38:10;;;;;;;17.67;15.03;;;0.40;99.90;;;;;;5066927;28;20820;-85
2022/01/10 08:40:38;;;;;;;16.00;14.40;;;0.40;99.90;;;;;;5067592;28;20473;-85
2022/01/10 08:43:10;;;;;;;15.47;13.80;;;0.50;99.90;;;;;;5066902;28;20529;-85
2022/01/10 08:45:37;;;;;;;14.80;13.30;;;0.50;99.90;;;;;;5064836;28;20466;-85
2022/01/10 08:48:05;;;;;;;17.50;15.70;;;0.60;99.90;;;;;;5064451;28;20470;-85
2022/01/10 08:50:33;;;;;;;17.43;15.67;;;0.60;99.90;;;;;;5069121;28;20520;-85
2022/01/10 08:53:00;;;;;;;23.40;16.10;;;0.60;99.90;;;;;;5069308;28;20495;-85
2022/01/10 08:55:27;;;;;;;17.17;15.37;;;0.60;99.90;;;;;;5066804;28;20453;-85
2022/01/10 08:57:56;;;;;;;17.57;15.77;;;0.60;99.90;;;;;;5066296;28;20477;-85
2022/01/10 09:00:23;;;;;;;19.83;15.47;;;0.60;99.90;;;;;;5068783;28;20953;-84
2022/01/10 09:02:50;;;;;;;17.00;15.30;;;0.60;99.90;;;;;;5068773;28;20948;-85
2022/01/10 09:05:17;;;;;;;17.57;15.43;;;0.60;99.90;;;;;;5059917;28;20476;-85
2022/01/10 09:07:44;;;;;;;19.40;16.40;;;0.40;99.90;;;;;;5066468;28;20488;-85
2022/01/10 09:10:11;;;;;;;20.20;16.83;;;0.40;99.90;;;;;;5071681;28;20455;-85
2022/01/10 09:12:38;;;;;;;22.40;17.33;;;0.40;99.90;;;;;;5059674;28;20476;-85
2022/01/10 09:15:08;;;;;;;19.37;17.33;;;0.50;99.90;;;;;;5066238;28;20513;-85
2022/01/10 09:17:35;;;;;;;20.03;17.93;;;0.50;99.90;;;;;;5067764;28;20501;-85
2022/01/10 09:20:02;;;;;;;19.93;17.33;;;0.60;99.90;;;;;;5069693;28;20554;-85
2022/01/10 09:22:29;;;;;;;20.97;18.77;;;0.40;99.90;;;;;;5064732;28;20461;-85
2022/01/10 09:24:56;;;;;;;18.20;16.03;;;0.20;99.90;;;;;;5069728;28;20871;-85
2022/01/10 09:27:22;;;;;;;18.33;16.30;;;0.10;99.90;;;;;;5069996;28;20569;-85
2022/01/10 09:29:50;;;;;;;17.23;15.50;;;0.00;99.90;;;;;;5066758;28;20446;-85
2022/01/10 09:32:18;;;;;;;30.57;27.97;;;0.10;99.90;;;;;;5065783;28;20476;-85
2022/01/10 09:34:45;;;;;;;31.67;27.47;;;0.20;99.90;;;;;;5072092;28;21450;-85
2022/01/10 09:37:13;;;;;;;25.83;21.80;;;0.30;99.90;;;;;;5066207;28;20452;-85
2022/01/10 09:39:40;;;;;;;22.90;19.57;;;0.30;99.90;;;;;;5066337;28;20450;-85
2022/01/10 09:42:07;;;;;;;26.13;22.67;;;0.30;99.90;;;;;;5076860;28;20790;-85
2022/01/10 09:44:35;;;;;;;28.90;23.60;;;0.40;99.90;;;;;;5064697;28;20533;-84
2022/01/10 09:47:02;;;;;;;34.60;27.73;;;0.40;99.90;;;;;;5069235;28;20576;-85
2022/01/10 09:49:31;;;;;;;25.87;23.17;;;0.40;99.90;;;;;;5070307;28;20505;-85
2022/01/10 09:51:57;;;;;;;26.30;21.53;;;0.40;99.90;;;;;;5080379;28;20495;-85
2022/01/10 09:54:24;;;;;;;22.47;20.13;;;0.30;99.90;;;;;;5066894;28;20486;-85
2022/01/10 09:56:51;;;;;;;25.70;20.70;;;0.40;99.90;;;;;;5062314;28;20798;-85
2022/01/10 09:59:18;;;;;;;23.00;18.43;;;0.50;99.90;;;;;;5069270;28;20479;-85
2022/01/10 10:01:49;;;;;;;17.27;15.17;;;0.50;99.90;;;;;;5064757;28;20499;-85
2022/01/10 10:04:17;;;;;;;18.47;16.57;;;0.50;99.90;;;;;;5067365;28;20475;-85
2022/01/10 10:06:46;;;;;;;18.63;16.70;;;0.50;99.90;;;;;;5072078;28;20480;-85
2022/01/10 10:09:16;;;;;;;15.93;14.33;;;0.50;99.90;;;;;;5071571;28;20797;-85
2022/01/10 10:11:44;;;;;;;19.20;16.47;;;0.50;99.90;;;;;;5068403;28;20537;-85
2022/01/10 10:14:15;;;;;;;24.70;17.93;;;0.40;99.90;;;;;;5067187;28;20506;-84
2022/01/10 10:16:48;;;;;;;20.60;17.07;;;0.40;99.90;;;;;;5073258;28;20450;-85
2022/01/10 10:19:17;;;;;;;21.10;17.93;;;0.50;99.90;;;;;;5063958;28;20671;-85
2022/01/10 10:21:45;;;;;;;21.03;18.10;;;0.60;99.90;;;;;;5068754;28;20514;-85
2022/01/10 10:24:13;;;;;;;19.30;17.23;;;0.70;99.90;;;;;;5065613;28;20447;-85
2022/01/10 10:26:40;;;;;;;24.33;19.00;;;0.80;99.90;;;;;;5068011;28;20927;-85
2022/01/10 10:29:09;;;;;;;18.90;16.53;;;0.90;99.90;;;;;;5065552;28;20519;-85
2022/01/10 10:31:43;;;;;;;20.17;17.30;;;0.90;99.90;;;;;;5068709;28;20479;-85
2022/01/10 10:34:12;;;;;;;19.07;16.93;;;1.00;99.90;;;;;;5070884;28;20458;-85
2022/01/10 10:36:40;;;;;;;24.10;17.53;;;1.10;99.90;;;;;;5069697;28;20850;-85
2022/01/10 10:39:10;;;;;;;22.60;18.70;;;1.20;99.90;;;;;;5067245;28;20478;-84
2022/01/10 10:41:39;;;;;;;24.80;18.47;;;1.20;99.90;;;;;;5072794;28;20492;-83
2022/01/10 10:44:06;;;;;;;23.50;19.40;;;1.20;99.90;;;;;;5065867;28;20436;-85
2022/01/10 10:46:36;;;;;;;23.03;18.20;;;1.20;99.90;;;;;;5066857;28;20835;-85
2022/01/10 10:49:04;;;;;;;22.23;17.03;;;1.10;99.90;;;;;;5069204;28;20481;-84
2022/01/10 10:51:33;;;;;;;20.33;16.40;;;1.10;99.90;;;;;;5070167;28;20480;-85
2022/01/10 10:54:03;;;;;;;19.47;17.37;;;0.90;99.90;;;;;;5065910;28;20492;-85
2022/01/10 10:56:35;;;;;;;24.73;16.40;;;0.90;99.90;;;;;;5068775;28;20944;-85
2022/01/10 10:59:03;;;;;;;22.93;16.93;;;0.80;99.90;;;;;;5080910;28;20436;-84
2022/01/10 11:01:30;;;;;;;19.30;16.77;;;0.70;99.90;;;;;;5069765;28;20529;-85
2022/01/10 11:03:57;;;;;;;20.27;17.10;;;0.60;99.90;;;;;;5071638;28;20572;-85
2022/01/10 11:06:26;;;;;;;19.90;17.27;;;0.60;99.90;;;;;;5072290;28;20874;-84
2022/01/10 11:08:53;;;;;;;21.90;17.47;;;0.60;99.90;;;;;;5076902;28;20436;-85
2022/01/10 11:11:21;;;;;;;21.47;17.13;;;0.60;99.90;;;;;;5068495;28;20468;-85
2022/01/10 11:13:50;;;;;;;23.17;17.00;;;0.80;99.90;;;;;;5071332;28;20448;-84
2022/01/10 11:16:18;;;;;;;22.50;16.20;;;0.80;99.90;;;;;;5075203;28;20925;-85
2022/01/10 11:18:46;;;;;;;19.80;15.67;;;0.90;99.90;;;;;;5070154;28;20445;-85
2022/01/10 11:21:14;;;;;;;17.23;15.50;;;1.00;99.90;;;;;;5070022;28;20469;-84
2022/01/10 11:23:43;;;;;;;18.13;15.17;;;1.00;99.90;;;;;;5072828;28;20762;-85
2022/01/10 11:26:10;;;;;;;21.70;16.97;;;1.10;99.90;;;;;;5066242;28;20624;-85
2022/01/10 11:28:47;;;;;;;17.17;14.37;;;1.00;99.90;;;;;;5066757;28;21071;-84
2022/01/10 11:31:20;;;;;;;18.37;15.40;;;1.10;99.90;;;;;;5067284;28;20988;-84
2022/01/10 11:33:48;;;;;;;20.40;15.70;;;1.10;99.90;;;;;;5067910;28;20443;-83
2022/01/10 11:36:16;;;;;;;21.07;16.77;;;1.20;99.90;;;;;;5063336;28;20510;-84
2022/01/10 11:38:44;;;;;;;18.33;16.00;;;1.20;99.90;;;;;;5065885;28;21020;-84
2022/01/10 11:41:14;;;;;;;18.23;16.33;;;1.20;99.90;;;;;;5064793;28;20490;-84
2022/01/10 11:43:47;;;;;;;19.80;16.30;;;1.30;99.90;;;;;;5065555;28;20490;-84
2022/01/10 11:46:22;;;;;;;17.57;15.70;;;1.30;99.90;;;;;;5064686;28;20452;-84
2022/01/10 11:49:02;;;;;;;17.20;14.50;;;1.20;99.90;;;;;;5063267;28;20474;-84
2022/01/10 11:51:32;;;;;;;16.03;14.40;;;1.30;99.90;;;;;;5068844;28;20863;-83
2022/01/10 11:54:08;;;;;;;18.47;15.53;;;1.30;99.90;;;;;;5071380;28;20479;-84
2022/01/10 11:56:36;;;;;;;18.50;15.63;;;1.40;99.90;;;;;;5069578;28;20528;-84
2022/01/10 11:59:08;;;;;;;22.80;16.93;;;1.40;99.90;;;;;;5073646;28;20446;-84
2022/01/10 12:01:38;;;;;;;19.67;16.63;;;1.40;99.90;;;;;;5075501;28;20460;-84
2022/01/10 12:04:06;;;;;;;18.97;16.10;;;1.40;99.90;;;;;;5073427;28;20801;-84
2022/01/10 12:06:34;;;;;;;24.53;16.03;;;1.40;99.90;;;;;;5073353;28;20961;-84
2022/01/10 12:09:01;;;;;;;17.50;15.50;;;1.40;99.90;;;;;;5089999;22;20860;-57
2022/01/10 12:11:29;;;;;;;20.23;15.80;;;1.40;99.90;;;;;;5080236;28;20472;-56
2022/01/10 12:13:58;;;;;;;16.83;15.00;;;1.40;99.90;;;;;;5085897;28;20488;-56
2022/01/10 12:16:26;;;;;;;17.80;14.80;;;1.40;99.90;;;;;;5077062;28;20771;-56
2022/01/10 12:18:55;;;;;;;21.73;15.27;;;1.30;99.90;;;;;;5086612;28;20435;-57
2022/01/10 12:21:22;;;;;;;15.50;13.90;;;1.20;99.90;;;;;;5081661;28;20468;-57
2022/01/10 12:23:52;;;;;;;21.93;17.63;;;1.20;99.90;;;;;;5100348;22;20519;-56
2022/01/10 12:26:21;;;;;;;24.90;20.73;;;1.20;99.90;;;;;;5074978;28;20923;-57
2022/01/10 12:28:51;;;;;;;21.30;17.47;;;1.30;99.90;;;;;;5082185;28;20571;-58
2022/01/10 12:31:18;;;;;;;21.57;16.63;;;1.30;99.90;;;;;;5088120;28;20443;-59
2022/01/10 12:33:46;;;;;;;22.60;17.63;;;1.30;99.90;;;;;;5090565;28;20487;-58
2022/01/10 12:36:14;;;;;;;17.43;15.27;;;1.30;99.90;;;;;;5082429;28;20501;-57
2022/01/10 12:38:43;;;;;;;19.20;15.87;;;1.30;99.90;;;;;;5083217;28;20459;-58
2022/01/10 12:41:10;;;;;;;22.87;19.90;;;1.30;99.90;;;;;;5078867;28;20533;-57
2022/01/10 12:43:37;;;;;;;21.87;17.20;;;1.30;99.90;;;;;;5073536;28;20830;-57
2022/01/10 12:46:04;;;;;;;18.50;15.13;;;1.20;99.90;;;;;;5088231;28;20476;-64
2022/01/10 12:48:31;;;;;;;19.23;17.10;;;1.20;99.90;;;;;;5088958;28;20507;-58